createdAt,value
2018-02-25T00:00:52.845Z,5.70
2018-02-25T00:01:52.819Z,5.60
2018-02-25T00:02:52.806Z,5.30
2018-02-25T00:03:52.774Z,5.20
2018-02-25T00:04:52.749Z,5.70
2018-02-25T00:05:52.724Z,5.60
2018-02-25T00:06:52.704Z,5.20
2018-02-25T00:07:52.675Z,5.50
2018-02-25T00:08:52.652Z,5.40
2018-02-25T00:09:52.631Z,5.80
2018-02-25T00:10:52.615Z,5.50
2018-02-25T00:11:52.581Z,5.70
2018-02-25T00:12:52.563Z,5.30
2018-02-25T00:13:52.534Z,5.40
2018-02-25T00:14:52.533Z,6.40
2018-02-25T00:15:52.486Z,6.00
2018-02-25T00:16:52.463Z,6.40
2018-02-25T00:17:52.442Z,5.90
2018-02-25T00:18:52.415Z,6.60
2018-02-25T00:19:52.393Z,6.00
2018-02-25T00:20:52.370Z,6.50
2018-02-25T00:21:52.345Z,6.10
2018-02-25T00:22:52.322Z,6.60
2018-02-25T00:23:52.295Z,6.30
2018-02-25T00:24:52.306Z,6.30
2018-02-25T00:25:52.247Z,6.10
2018-02-25T00:26:52.226Z,7.20
2018-02-25T00:27:52.201Z,6.30
2018-02-25T00:28:52.176Z,6.10
2018-02-25T00:29:52.152Z,6.30
2018-02-25T00:30:52.128Z,6.90
2018-02-25T00:31:52.106Z,6.80
2018-02-25T00:32:52.081Z,6.40
2018-02-25T00:33:52.053Z,6.80
2018-02-25T00:34:52.045Z,7.50
2018-02-25T00:35:52.017Z,7.90
2018-02-25T00:36:51.990Z,9.00
2018-02-25T00:37:51.969Z,8.50
2018-02-25T00:38:51.940Z,9.30
2018-02-25T00:39:51.914Z,10.30
2018-02-25T00:40:51.888Z,10.20
2018-02-25T00:41:51.867Z,10.50
2018-02-25T00:42:51.845Z,10.60
2018-02-25T00:43:51.817Z,10.40
2018-02-25T00:44:51.793Z,10.60
2018-02-25T00:45:51.770Z,10.10
2018-02-25T00:46:51.742Z,10.50
2018-02-25T00:47:51.718Z,10.50
2018-02-25T00:48:51.701Z,10.40
2018-02-25T00:49:51.675Z,9.70
2018-02-25T00:50:51.647Z,9.40
2018-02-25T00:51:51.624Z,9.70
2018-02-25T00:52:51.597Z,10.20
2018-02-25T00:53:51.573Z,10.30
2018-02-25T00:54:51.550Z,11.10
2018-02-25T00:55:51.533Z,10.30
2018-02-25T00:56:51.504Z,11.20
2018-02-25T00:57:51.480Z,10.60
2018-02-25T00:58:51.455Z,11.10
2018-02-25T00:59:51.434Z,10.30
2018-02-25T01:00:51.417Z,10.00
2018-02-25T01:01:51.383Z,10.30
2018-02-25T01:02:51.370Z,10.20
2018-02-25T01:03:51.338Z,9.70
2018-02-25T01:04:51.369Z,9.30
2018-02-25T01:05:51.289Z,7.30
2018-02-25T01:06:51.268Z,6.90
2018-02-25T01:07:51.243Z,7.00
2018-02-25T01:08:51.220Z,7.30
2018-02-25T01:09:51.195Z,6.70
2018-02-25T01:10:51.172Z,6.50
2018-02-25T01:11:51.147Z,6.90
2018-02-25T01:12:51.124Z,7.00
2018-02-25T01:13:51.099Z,6.90
2018-02-25T01:14:51.105Z,6.20
2018-02-25T01:15:51.052Z,6.30
2018-02-25T01:16:51.572Z,6.50
2018-02-25T01:17:51.001Z,6.20
2018-02-25T01:18:50.982Z,5.90
2018-02-25T01:19:50.952Z,5.90
2018-02-25T01:20:50.936Z,6.10
2018-02-25T01:21:50.901Z,5.70
2018-02-25T01:22:50.878Z,6.80
2018-02-25T01:23:50.861Z,6.10
2018-02-25T01:24:50.830Z,5.70
2018-02-25T01:25:50.805Z,6.20
2018-02-25T01:26:50.789Z,6.10
2018-02-25T01:27:50.761Z,6.40
2018-02-25T01:28:50.733Z,6.40
2018-02-25T01:29:50.713Z,6.20
2018-02-25T01:30:50.689Z,6.20
2018-02-25T01:31:50.667Z,6.50
2018-02-25T01:32:50.640Z,6.20
2018-02-25T01:33:50.614Z,7.00
2018-02-25T01:34:50.588Z,6.50
2018-02-25T01:35:50.564Z,6.10
2018-02-25T01:36:50.551Z,6.70
2018-02-25T01:37:50.517Z,6.40
2018-02-25T01:38:50.494Z,6.40
2018-02-25T01:39:50.473Z,6.80
2018-02-25T01:40:50.445Z,6.40
2018-02-25T01:41:50.423Z,5.90
2018-02-25T01:42:50.397Z,6.40
2018-02-25T01:43:50.377Z,6.40
2018-02-25T01:44:50.352Z,7.20
2018-02-25T01:45:50.341Z,6.90
2018-02-25T01:46:50.311Z,6.80
2018-02-25T01:47:50.286Z,6.40
2018-02-25T01:48:50.251Z,7.10
2018-02-25T01:49:50.226Z,6.20
2018-02-25T01:50:50.203Z,5.90
2018-02-25T01:51:50.178Z,6.30
2018-02-25T01:52:50.152Z,6.10
2018-02-25T01:53:50.131Z,6.10
2018-02-25T01:54:50.107Z,5.60
2018-02-25T01:55:50.085Z,5.80
2018-02-25T01:56:50.061Z,6.00
2018-02-25T01:57:50.037Z,5.30
2018-02-25T01:58:50.012Z,5.70
2018-02-25T01:59:49.989Z,5.50
2018-02-25T02:00:49.963Z,5.90
2018-02-25T02:01:49.937Z,6.00
2018-02-25T02:02:49.914Z,5.30
2018-02-25T02:03:49.898Z,5.70
2018-02-25T02:04:49.864Z,5.80
2018-02-25T02:05:49.844Z,5.00
2018-02-25T02:06:49.815Z,5.30
2018-02-25T02:07:49.793Z,5.40
2018-02-25T02:08:49.781Z,5.10
2018-02-25T02:09:49.745Z,5.10
2018-02-25T02:10:49.727Z,5.20
2018-02-25T02:11:49.741Z,4.10
2018-02-25T02:12:49.671Z,5.10
2018-02-25T02:13:49.650Z,5.40
2018-02-25T02:14:49.623Z,5.50
2018-02-25T02:15:49.597Z,5.10
2018-02-25T02:16:49.573Z,4.80
2018-02-25T02:17:49.550Z,5.00
2018-02-25T02:18:49.526Z,5.20
2018-02-25T02:19:49.504Z,5.40
2018-02-25T02:20:49.481Z,5.10
2018-02-25T02:21:49.453Z,5.40
2018-02-25T02:22:49.427Z,5.00
2018-02-25T02:23:49.434Z,5.60
2018-02-25T02:24:49.383Z,5.50
2018-02-25T02:25:49.354Z,5.10
2018-02-25T02:26:49.330Z,4.80
2018-02-25T02:27:49.370Z,5.40
2018-02-25T02:28:49.285Z,5.40
2018-02-25T02:29:49.260Z,5.10
2018-02-25T02:30:49.240Z,5.30
2018-02-25T02:31:49.274Z,5.30
2018-02-25T02:32:49.184Z,5.60
2018-02-25T02:33:49.266Z,5.80
2018-02-25T02:34:49.140Z,5.50
2018-02-25T02:35:49.128Z,6.00
2018-02-25T02:36:49.092Z,5.50
2018-02-25T02:37:49.069Z,5.20
2018-02-25T02:38:49.043Z,5.50
2018-02-25T02:39:49.068Z,5.60
2018-02-25T02:40:48.995Z,5.00
2018-02-25T02:41:48.975Z,5.80
2018-02-25T02:42:48.945Z,5.40
2018-02-25T02:43:48.924Z,5.50
2018-02-25T02:44:48.903Z,5.50
2018-02-25T02:45:48.870Z,5.50
2018-02-25T02:46:48.846Z,5.40
2018-02-25T02:47:48.823Z,5.70
2018-02-25T02:48:48.798Z,5.60
2018-02-25T02:49:48.776Z,5.00
2018-02-25T02:50:48.751Z,5.20
2018-02-25T02:51:48.727Z,5.20
2018-02-25T02:52:48.703Z,5.50
2018-02-25T02:53:48.679Z,5.20
2018-02-25T02:54:48.654Z,5.70
2018-02-25T02:55:48.632Z,5.40
2018-02-25T02:56:48.604Z,5.80
2018-02-25T02:57:48.578Z,5.60
2018-02-25T02:58:48.561Z,5.70
2018-02-25T02:59:48.532Z,5.80
2018-02-25T03:00:48.516Z,6.10
2018-02-25T03:01:48.485Z,6.20
2018-02-25T03:02:48.464Z,5.70
2018-02-25T03:03:48.433Z,5.80
2018-02-25T03:04:48.409Z,5.80
2018-02-25T03:05:48.384Z,5.80
2018-02-25T03:06:48.364Z,5.20
2018-02-25T03:07:48.340Z,6.50
2018-02-25T03:08:48.312Z,6.10
2018-02-25T03:09:48.292Z,5.70
2018-02-25T03:10:48.264Z,5.70
2018-02-25T03:11:48.243Z,6.00
2018-02-25T03:12:48.219Z,5.80
2018-02-25T03:13:48.195Z,6.20
2018-02-25T03:14:48.172Z,6.20
2018-02-25T03:15:48.145Z,5.90
2018-02-25T03:16:48.118Z,5.80
2018-02-25T03:17:48.093Z,6.10
2018-02-25T03:18:48.074Z,6.20
2018-02-25T03:19:48.049Z,6.30
2018-02-25T03:20:48.022Z,6.00
2018-02-25T03:21:47.997Z,6.30
2018-02-25T03:22:47.973Z,6.10
2018-02-25T03:23:47.950Z,6.20
2018-02-25T03:24:47.924Z,6.30
2018-02-25T03:25:47.911Z,5.90
2018-02-25T03:26:47.877Z,6.10
2018-02-25T03:27:47.858Z,6.10
2018-02-25T03:28:47.832Z,5.50
2018-02-25T03:29:47.804Z,5.60
2018-02-25T03:30:47.790Z,5.50
2018-02-25T03:31:47.760Z,6.10
2018-02-25T03:32:47.736Z,6.20
2018-02-25T03:33:47.705Z,5.80
2018-02-25T03:34:47.684Z,6.10
2018-02-25T03:35:47.656Z,5.50
2018-02-25T03:36:47.633Z,6.60
2018-02-25T03:37:47.610Z,6.30
2018-02-25T03:38:47.635Z,5.80
2018-02-25T03:39:47.562Z,6.30
2018-02-25T03:40:47.537Z,6.60
2018-02-25T03:41:47.515Z,5.90
2018-02-25T03:42:47.489Z,6.00
2018-02-25T03:43:47.465Z,6.40
2018-02-25T03:44:47.440Z,5.70
2018-02-25T03:45:47.415Z,6.20
2018-02-25T03:46:47.393Z,6.40
2018-02-25T03:47:47.365Z,6.50
2018-02-25T03:48:47.391Z,6.70
2018-02-25T03:49:47.318Z,6.80
2018-02-25T03:50:47.387Z,6.50
2018-02-25T03:51:47.265Z,6.90
2018-02-25T03:52:47.249Z,6.70
2018-02-25T03:53:47.219Z,6.40
2018-02-25T03:54:47.200Z,7.10
2018-02-25T03:55:47.173Z,6.40
2018-02-25T03:56:47.148Z,6.40
2018-02-25T03:57:47.122Z,6.80
2018-02-25T03:58:47.113Z,6.00
2018-02-25T03:59:47.080Z,7.00
2018-02-25T04:00:47.200Z,6.90
2018-02-25T04:01:47.044Z,6.70
2018-02-25T04:02:47.001Z,6.50
2018-02-25T04:03:46.974Z,6.60
2018-02-25T04:04:46.956Z,7.30
2018-02-25T04:05:46.925Z,6.80
2018-02-25T04:06:46.908Z,7.00
2018-02-25T04:07:46.878Z,6.80
2018-02-25T04:08:46.853Z,7.50
2018-02-25T04:09:46.829Z,7.30
2018-02-25T04:10:46.803Z,6.90
2018-02-25T04:11:46.787Z,6.90
2018-02-25T04:12:46.759Z,7.50
2018-02-25T04:13:46.735Z,6.70
2018-02-25T04:14:46.710Z,7.60
2018-02-25T04:15:46.684Z,6.90
2018-02-25T04:16:46.664Z,6.90
2018-02-25T04:17:46.634Z,6.60
2018-02-25T04:18:46.614Z,7.70
2018-02-25T04:19:46.587Z,7.10
2018-02-25T04:20:46.562Z,7.30
2018-02-25T04:21:46.541Z,6.60
2018-02-25T04:22:46.514Z,6.30
2018-02-25T04:23:46.490Z,7.00
2018-02-25T04:24:46.465Z,7.20
2018-02-25T04:25:46.441Z,6.80
2018-02-25T04:26:46.414Z,7.50
2018-02-25T04:27:46.394Z,7.00
2018-02-25T04:28:46.371Z,7.00
2018-02-25T04:29:46.345Z,6.80
2018-02-25T04:30:46.320Z,6.70
2018-02-25T04:31:46.295Z,6.50
2018-02-25T04:32:46.267Z,6.80
2018-02-25T04:33:46.246Z,7.00
2018-02-25T04:34:46.220Z,7.30
2018-02-25T04:35:46.197Z,7.00
2018-02-25T04:36:46.177Z,6.90
2018-02-25T04:37:46.147Z,6.90
2018-02-25T04:38:46.121Z,7.00
2018-02-25T04:39:46.099Z,7.20
2018-02-25T04:40:46.074Z,6.80
2018-02-25T04:41:46.056Z,7.50
2018-02-25T04:42:46.028Z,6.90
2018-02-25T04:43:46.004Z,7.40
2018-02-25T04:44:45.984Z,7.00
2018-02-25T04:45:45.949Z,7.30
2018-02-25T04:46:45.926Z,7.90
2018-02-25T04:47:45.904Z,7.40
2018-02-25T04:48:45.877Z,7.60
2018-02-25T04:49:45.855Z,7.20
2018-02-25T04:50:45.836Z,7.10
2018-02-25T04:51:45.804Z,7.00
2018-02-25T04:52:45.785Z,6.80
2018-02-25T04:53:45.754Z,7.90
2018-02-25T04:54:45.733Z,7.60
2018-02-25T04:55:45.711Z,7.10
2018-02-25T04:56:45.682Z,7.60
2018-02-25T04:57:45.665Z,7.30
2018-02-25T04:58:45.633Z,7.50
2018-02-25T04:59:45.658Z,7.90
2018-02-25T05:00:45.585Z,7.70
2018-02-25T05:01:45.560Z,7.70
2018-02-25T05:02:45.546Z,7.50
2018-02-25T05:03:45.512Z,7.70
2018-02-25T05:04:45.486Z,7.40
2018-02-25T05:05:45.464Z,7.30
2018-02-25T05:06:45.442Z,7.80
2018-02-25T05:07:45.487Z,6.80
2018-02-25T05:08:45.387Z,7.20
2018-02-25T05:09:45.466Z,7.40
2018-02-25T05:10:45.339Z,7.20
2018-02-25T05:11:45.392Z,7.70
2018-02-25T05:12:45.293Z,6.80
2018-02-25T05:13:45.270Z,8.00
2018-02-25T05:14:45.242Z,7.50
2018-02-25T05:15:45.334Z,7.10
2018-02-25T05:16:45.200Z,7.20
2018-02-25T05:17:45.174Z,7.50
2018-02-25T05:18:45.141Z,7.10
2018-02-25T05:19:45.125Z,7.20
2018-02-25T05:20:45.095Z,7.70
2018-02-25T05:21:45.069Z,7.40
2018-02-25T05:22:45.045Z,7.30
2018-02-25T05:23:45.021Z,7.60
2018-02-25T05:24:44.999Z,7.50
2018-02-25T05:25:44.967Z,7.60
2018-02-25T05:26:44.947Z,8.10
2018-02-25T05:27:44.921Z,8.20
2018-02-25T05:28:44.905Z,7.60
2018-02-25T05:29:44.871Z,7.60
2018-02-25T05:30:44.845Z,7.40
2018-02-25T05:31:44.822Z,8.30
2018-02-25T05:32:44.799Z,8.40
2018-02-25T05:33:44.775Z,7.90
2018-02-25T05:34:44.752Z,8.40
2018-02-25T05:35:44.725Z,8.30
2018-02-25T05:36:44.705Z,8.30
2018-02-25T05:37:44.674Z,8.60
2018-02-25T05:38:44.649Z,8.60
2018-02-25T05:39:44.627Z,8.70
2018-02-25T05:40:44.602Z,8.10
2018-02-25T05:41:44.577Z,8.10
2018-02-25T05:42:44.554Z,7.80
2018-02-25T05:43:44.526Z,7.80
2018-02-25T05:44:44.503Z,7.20
2018-02-25T05:45:44.481Z,7.50
2018-02-25T05:46:44.453Z,7.50
2018-02-25T05:47:44.434Z,7.80
2018-02-25T05:48:44.401Z,7.50
2018-02-25T05:49:44.379Z,7.40
2018-02-25T05:50:44.354Z,7.30
2018-02-25T05:51:44.331Z,7.40
2018-02-25T05:52:44.307Z,7.40
2018-02-25T05:53:44.280Z,7.60
2018-02-25T05:54:44.259Z,7.40
2018-02-25T05:55:44.235Z,7.80
2018-02-25T05:56:44.255Z,7.20
2018-02-25T05:57:44.184Z,7.80
2018-02-25T05:58:44.165Z,8.40
2018-02-25T05:59:44.137Z,7.40
2018-02-25T06:00:44.108Z,7.40
2018-02-25T06:01:44.085Z,7.50
2018-02-25T06:02:44.061Z,8.00
2018-02-25T06:03:44.035Z,7.60
2018-02-25T06:04:44.013Z,7.80
2018-02-25T06:05:43.989Z,7.60
2018-02-25T06:06:43.963Z,8.10
2018-02-25T06:07:43.935Z,7.60
2018-02-25T06:08:43.913Z,7.70
2018-02-25T06:09:43.887Z,7.80
2018-02-25T06:10:43.863Z,7.00
2018-02-25T06:11:43.840Z,8.10
2018-02-25T06:12:43.812Z,7.40
2018-02-25T06:13:43.808Z,7.50
2018-02-25T06:14:43.764Z,8.60
2018-02-25T06:15:43.736Z,8.10
2018-02-25T06:16:43.711Z,7.60
2018-02-25T06:17:43.688Z,8.60
2018-02-25T06:18:43.665Z,7.90
2018-02-25T06:19:43.641Z,7.40
2018-02-25T06:20:43.618Z,7.90
2018-02-25T06:21:43.594Z,8.70
2018-02-25T06:22:43.564Z,8.10
2018-02-25T06:23:43.544Z,7.90
2018-02-25T06:24:43.518Z,8.10
2018-02-25T06:25:43.493Z,8.10
2018-02-25T06:26:43.473Z,8.80
2018-02-25T06:27:43.448Z,8.10
2018-02-25T06:28:43.418Z,7.50
2018-02-25T06:29:43.395Z,8.10
2018-02-25T06:30:43.392Z,7.90
2018-02-25T06:31:43.344Z,8.70
2018-02-25T06:32:43.320Z,8.60
2018-02-25T06:33:43.294Z,9.00
2018-02-25T06:34:43.269Z,9.00
2018-02-25T06:35:43.255Z,8.20
2018-02-25T06:36:43.224Z,8.80
2018-02-25T06:37:43.197Z,8.30
2018-02-25T06:38:43.171Z,8.70
2018-02-25T06:39:43.148Z,8.60
2018-02-25T06:40:43.123Z,8.40
2018-02-25T06:41:43.109Z,8.80
2018-02-25T06:42:43.086Z,8.40
2018-02-25T06:43:43.047Z,8.70
2018-02-25T06:44:43.023Z,8.30
2018-02-25T06:45:43.002Z,8.10
2018-02-25T06:46:43.029Z,8.50
2018-02-25T06:47:42.952Z,8.80
2018-02-25T06:48:42.923Z,8.50
2018-02-25T06:49:42.903Z,8.80
2018-02-25T06:50:42.887Z,9.10
2018-02-25T06:51:42.863Z,9.30
2018-02-25T06:52:42.833Z,9.20
2018-02-25T06:53:42.805Z,9.00
2018-02-25T06:54:42.779Z,9.60
2018-02-25T06:55:42.760Z,9.30
2018-02-25T06:56:42.731Z,9.40
2018-02-25T06:57:42.708Z,8.90
2018-02-25T06:58:42.690Z,8.90
2018-02-25T06:59:42.656Z,9.70
2018-02-25T07:00:42.633Z,9.70
2018-02-25T07:01:42.610Z,8.90
2018-02-25T07:02:42.585Z,9.00
2018-02-25T07:03:42.561Z,8.20
2018-02-25T07:04:42.535Z,8.40
2018-02-25T07:05:42.509Z,9.00
2018-02-25T07:06:42.489Z,9.20
2018-02-25T07:07:42.471Z,9.10
2018-02-25T07:08:42.442Z,8.80
2018-02-25T07:09:42.413Z,9.00
2018-02-25T07:10:42.395Z,8.90
2018-02-25T07:11:42.364Z,8.90
2018-02-25T07:12:42.339Z,9.00
2018-02-25T07:13:42.315Z,9.40
2018-02-25T07:14:42.293Z,9.60
2018-02-25T07:15:42.268Z,9.30
2018-02-25T07:16:42.244Z,9.70
2018-02-25T07:17:42.220Z,9.60
2018-02-25T07:18:42.204Z,10.00
2018-02-25T07:19:42.174Z,8.80
2018-02-25T07:20:42.146Z,9.80
2018-02-25T07:21:42.129Z,9.50
2018-02-25T07:22:42.101Z,9.50
2018-02-25T07:23:42.074Z,9.00
2018-02-25T07:24:42.054Z,10.00
2018-02-25T07:25:42.031Z,9.70
2018-02-25T07:26:42.053Z,9.40
2018-02-25T07:27:41.976Z,9.60
2018-02-25T07:28:41.980Z,9.50
2018-02-25T07:29:41.933Z,9.10
2018-02-25T07:30:41.913Z,9.50
2018-02-25T07:31:41.886Z,9.40
2018-02-25T07:32:41.857Z,9.30
2018-02-25T07:33:41.833Z,9.30
2018-02-25T07:34:41.807Z,9.90
2018-02-25T07:35:41.791Z,9.60
2018-02-25T07:36:41.761Z,9.20
2018-02-25T07:37:41.739Z,9.10
2018-02-25T07:38:41.713Z,9.50
2018-02-25T07:39:41.689Z,9.40
2018-02-25T07:40:41.665Z,9.50
2018-02-25T07:41:41.641Z,9.30
2018-02-25T07:42:41.623Z,9.00
2018-02-25T07:43:41.593Z,9.30
2018-02-25T07:44:41.592Z,9.20
2018-02-25T07:45:41.547Z,9.50
2018-02-25T07:46:41.521Z,9.10
2018-02-25T07:47:41.498Z,9.00
2018-02-25T07:48:41.475Z,9.60
2018-02-25T07:49:41.454Z,9.90
2018-02-25T07:50:41.427Z,9.60
2018-02-25T07:51:41.406Z,9.10
2018-02-25T07:52:41.386Z,9.20
2018-02-25T07:53:41.354Z,8.70
2018-02-25T07:54:41.338Z,9.60
2018-02-25T07:55:41.312Z,9.30
2018-02-25T07:56:41.288Z,8.90
2018-02-25T07:57:41.269Z,8.50
2018-02-25T07:58:41.236Z,8.40
2018-02-25T07:59:41.214Z,9.10
2018-02-25T08:00:41.189Z,8.70
2018-02-25T08:01:41.170Z,8.20
2018-02-25T08:02:41.151Z,8.40
2018-02-25T08:03:41.127Z,8.30
2018-02-25T08:04:41.107Z,7.90
2018-02-25T08:05:41.082Z,8.00
2018-02-25T08:06:41.054Z,7.70
2018-02-25T08:07:41.037Z,7.40
2018-02-25T08:08:41.013Z,7.60
2018-02-25T08:09:40.992Z,7.40
2018-02-25T08:10:40.959Z,7.60
2018-02-25T08:11:40.942Z,7.60
2018-02-25T08:12:40.909Z,7.70
2018-02-25T08:13:40.894Z,7.80
2018-02-25T08:14:40.864Z,7.60
2018-02-25T08:15:40.839Z,7.50
2018-02-25T08:16:40.820Z,7.30
2018-02-25T08:17:40.802Z,7.10
2018-02-25T08:18:40.773Z,7.40
2018-02-25T08:19:40.755Z,7.30
2018-02-25T08:20:40.724Z,6.50
2018-02-25T08:21:40.746Z,6.50
2018-02-25T08:22:40.686Z,6.30
2018-02-25T08:23:40.658Z,6.70
2018-02-25T08:24:40.632Z,6.30
2018-02-25T08:25:40.618Z,6.10
2018-02-25T08:26:40.598Z,6.50
2018-02-25T08:27:40.565Z,6.10
2018-02-25T08:28:40.544Z,6.00
2018-02-25T08:29:40.526Z,5.90
2018-02-25T08:30:40.494Z,5.50
2018-02-25T08:31:40.476Z,5.80
2018-02-25T08:32:40.453Z,5.60
2018-02-25T08:33:40.429Z,5.70
2018-02-25T08:34:40.405Z,5.40
2018-02-25T08:35:40.381Z,5.40
2018-02-25T08:36:40.419Z,4.20
2018-02-25T08:37:40.334Z,4.50
2018-02-25T08:38:40.319Z,4.10
2018-02-25T08:39:40.292Z,4.10
2018-02-25T08:40:40.270Z,4.30
2018-02-25T08:41:40.250Z,4.30
2018-02-25T08:42:40.235Z,4.00
2018-02-25T08:43:40.204Z,4.50
2018-02-25T08:44:40.179Z,4.30
2018-02-25T08:45:40.158Z,4.40
2018-02-25T08:46:40.135Z,4.50
2018-02-25T08:47:40.114Z,4.40
2018-02-25T08:48:40.144Z,5.00
2018-02-25T08:49:40.071Z,11.00
2018-02-25T08:50:40.048Z,28.00
2018-02-25T08:51:40.029Z,21.30
2018-02-25T08:52:40.011Z,5.80
2018-02-25T08:53:39.992Z,5.80
2018-02-25T08:54:39.965Z,4.20
2018-02-25T08:55:39.944Z,3.90
2018-02-25T08:56:39.920Z,3.80
2018-02-25T08:57:39.903Z,3.70
2018-02-25T08:58:39.887Z,3.60
2018-02-25T08:59:39.865Z,3.60
2018-02-25T09:00:39.886Z,4.60
2018-02-25T09:01:39.827Z,3.60
2018-02-25T09:02:39.804Z,3.70
2018-02-25T09:03:39.784Z,4.10
2018-02-25T09:04:39.763Z,3.60
2018-02-25T09:05:39.743Z,4.20
2018-02-25T09:06:39.774Z,3.70
2018-02-25T09:07:39.706Z,3.50
2018-02-25T09:08:39.688Z,3.60
2018-02-25T09:09:39.675Z,3.70
2018-02-25T09:10:39.652Z,4.00
2018-02-25T09:11:39.638Z,4.30
2018-02-25T09:12:39.618Z,3.80
2018-02-25T09:13:39.605Z,3.80
2018-02-25T09:14:39.584Z,4.10
2018-02-25T09:15:39.575Z,4.80
2018-02-25T09:16:39.553Z,3.90
2018-02-25T09:17:39.533Z,3.60
2018-02-25T09:18:39.518Z,3.10
2018-02-25T09:19:39.501Z,3.10
2018-02-25T09:20:39.488Z,3.10
2018-02-25T09:21:39.474Z,3.80
2018-02-25T09:22:39.451Z,3.40
2018-02-25T09:23:39.439Z,3.30
2018-02-25T09:24:39.420Z,3.60
2018-02-25T09:25:39.405Z,3.00
2018-02-25T09:26:39.437Z,2.70
2018-02-25T09:27:39.383Z,3.30
2018-02-25T09:28:39.375Z,3.20
2018-02-25T09:29:39.349Z,3.30
2018-02-25T09:30:39.337Z,3.50
2018-02-25T09:31:39.312Z,3.30
2018-02-25T09:32:39.305Z,3.00
2018-02-25T09:33:39.275Z,3.00
2018-02-25T09:34:39.269Z,2.70
2018-02-25T09:35:39.244Z,2.90
2018-02-25T09:36:39.234Z,3.20
2018-02-25T09:37:39.213Z,2.60
2018-02-25T09:38:39.198Z,3.00
2018-02-25T09:39:39.183Z,3.30
2018-02-25T09:40:39.176Z,3.50
2018-02-25T09:41:39.155Z,3.70
2018-02-25T09:42:39.135Z,3.10
2018-02-25T09:43:39.122Z,3.30
2018-02-25T09:44:39.104Z,3.20
2018-02-25T09:45:39.092Z,2.90
2018-02-25T09:46:39.083Z,2.90
2018-02-25T09:47:39.060Z,2.90
2018-02-25T09:48:39.044Z,2.40
2018-02-25T09:49:39.034Z,2.90
2018-02-25T09:50:39.011Z,2.90
2018-02-25T09:51:39.009Z,3.30
2018-02-25T09:52:38.980Z,3.00
2018-02-25T09:53:38.972Z,3.10
2018-02-25T09:54:38.951Z,3.00
2018-02-25T09:55:38.983Z,2.90
2018-02-25T09:56:38.925Z,2.80
2018-02-25T09:57:38.908Z,2.60
2018-02-25T09:58:38.894Z,2.70
2018-02-25T09:59:38.886Z,2.70
2018-02-25T10:00:38.873Z,2.80
2018-02-25T10:01:38.853Z,2.30
2018-02-25T10:02:38.844Z,2.50
2018-02-25T10:03:38.833Z,2.20
2018-02-25T10:04:38.823Z,2.10
2018-02-25T10:05:38.824Z,2.50
2018-02-25T10:06:38.798Z,2.20
2018-02-25T10:07:38.789Z,2.60
2018-02-25T10:08:38.778Z,2.40
2018-02-25T10:09:38.774Z,2.80
2018-02-25T10:10:38.762Z,2.80
2018-02-25T10:11:38.754Z,2.90
2018-02-25T10:12:38.752Z,2.50
2018-02-25T10:13:38.741Z,2.40
2018-02-25T10:14:38.728Z,2.50
2018-02-25T10:15:38.747Z,2.50
2018-02-25T10:16:38.718Z,2.30
2018-02-25T10:17:38.715Z,2.20
2018-02-25T10:18:38.706Z,2.30
2018-02-25T10:19:38.700Z,2.40
2018-02-25T10:20:38.697Z,2.10
2018-02-25T10:21:38.689Z,2.10
2018-02-25T10:22:38.683Z,2.50
2018-02-25T10:23:38.852Z,2.80
2018-02-25T10:24:38.670Z,2.50
2018-02-25T10:25:38.688Z,2.60
2018-02-25T10:26:38.653Z,2.70
2018-02-25T10:27:38.665Z,2.20
2018-02-25T10:28:38.657Z,2.50
2018-02-25T10:29:38.664Z,2.50
2018-02-25T10:30:38.628Z,2.20
2018-02-25T10:31:38.800Z,2.60
2018-02-25T10:32:38.615Z,2.60
2018-02-25T10:33:38.615Z,2.50
2018-02-25T10:34:38.613Z,2.40
2018-02-25T10:35:38.599Z,2.30
2018-02-25T10:36:38.589Z,2.30
2018-02-25T10:37:38.582Z,2.60
2018-02-25T10:38:38.579Z,2.70
2018-02-25T10:39:38.579Z,2.60
2018-02-25T10:40:38.566Z,2.70
2018-02-25T10:41:38.563Z,2.70
2018-02-25T10:42:38.556Z,2.40
2018-02-25T10:43:38.551Z,2.60
2018-02-25T10:44:38.559Z,2.60
2018-02-25T10:45:38.544Z,2.10
2018-02-25T10:46:38.535Z,2.70
2018-02-25T10:47:38.529Z,2.40
2018-02-25T10:48:38.517Z,2.70
2018-02-25T10:49:38.520Z,2.70
2018-02-25T10:50:38.527Z,2.60
2018-02-25T10:51:38.512Z,3.00
2018-02-25T10:52:38.514Z,2.30
2018-02-25T10:53:38.497Z,2.50
2018-02-25T10:54:38.534Z,2.60
2018-02-25T10:55:38.487Z,2.80
2018-02-25T10:56:38.483Z,2.70
2018-02-25T10:57:38.476Z,2.70
2018-02-25T10:58:38.468Z,2.70
2018-02-25T10:59:38.465Z,2.50
2018-02-25T11:00:38.460Z,2.60
2018-02-25T11:01:38.452Z,2.40
2018-02-25T11:02:38.531Z,2.80
2018-02-25T11:03:38.444Z,2.80
2018-02-25T11:04:38.444Z,2.80
2018-02-25T11:05:38.438Z,2.90
2018-02-25T11:06:38.433Z,2.70
2018-02-25T11:07:38.425Z,2.70
2018-02-25T11:08:38.422Z,2.80
2018-02-25T11:09:38.420Z,2.60
2018-02-25T11:10:38.416Z,2.60
2018-02-25T11:11:38.414Z,3.10
2018-02-25T11:12:38.458Z,2.50
2018-02-25T11:13:38.406Z,2.50
2018-02-25T11:14:38.406Z,2.90
2018-02-25T11:15:38.427Z,3.00
2018-02-25T11:16:38.399Z,3.30
2018-02-25T11:17:38.407Z,3.30
2018-02-25T11:18:38.401Z,3.60
2018-02-25T11:19:38.399Z,2.90
2018-02-25T11:20:38.400Z,2.60
2018-02-25T11:21:38.396Z,2.60
2018-02-25T11:22:38.405Z,2.50
2018-02-25T11:23:38.395Z,2.10
2018-02-25T11:24:38.394Z,2.70
2018-02-25T11:25:38.395Z,2.50
2018-02-25T11:26:38.404Z,5.30
2018-02-25T11:27:38.396Z,3.50
2018-02-25T11:28:38.402Z,2.50
2018-02-25T11:29:38.394Z,3.20
2018-02-25T11:30:38.409Z,2.60
2018-02-25T11:31:38.469Z,3.40
2018-02-25T11:32:38.400Z,4.30
2018-02-25T11:33:38.407Z,2.70
2018-02-25T11:34:38.416Z,2.80
2018-02-25T11:35:38.404Z,3.00
2018-02-25T11:36:38.453Z,4.00
2018-02-25T11:37:38.403Z,2.60
2018-02-25T11:38:38.411Z,2.70
2018-02-25T11:39:38.405Z,2.60
2018-02-25T11:40:38.408Z,2.60
2018-02-25T11:41:38.413Z,2.50
2018-02-25T11:42:38.717Z,2.60
2018-02-25T11:43:38.411Z,3.70
2018-02-25T11:44:38.413Z,3.70
2018-02-25T11:45:38.418Z,2.60
2018-02-25T11:46:38.423Z,3.30
2018-02-25T11:47:38.475Z,2.80
2018-02-25T11:48:38.423Z,2.80
2018-02-25T11:49:38.429Z,3.10
2018-02-25T11:50:38.431Z,2.50
2018-02-25T11:51:38.430Z,2.90
2018-02-25T11:52:38.433Z,3.00
2018-02-25T11:53:38.431Z,2.70
2018-02-25T11:54:38.434Z,4.20
2018-02-25T11:55:38.436Z,3.10
2018-02-25T11:56:38.446Z,2.50
2018-02-25T11:57:38.441Z,2.50
2018-02-25T11:58:38.438Z,3.10
2018-02-25T11:59:38.448Z,4.40
2018-02-25T12:00:38.440Z,3.00
2018-02-25T12:01:38.446Z,3.50
2018-02-25T12:02:38.445Z,3.00
2018-02-25T12:03:38.447Z,2.90
2018-02-25T12:04:38.451Z,3.00
2018-02-25T12:05:38.463Z,2.40
2018-02-25T12:06:38.453Z,2.70
2018-02-25T12:07:38.456Z,2.70
2018-02-25T12:08:38.457Z,3.10
2018-02-25T12:09:38.457Z,6.20
2018-02-25T12:10:38.459Z,5.20
2018-02-25T12:11:38.466Z,3.00
2018-02-25T12:12:38.461Z,5.10
2018-02-25T12:13:38.460Z,4.50
2018-02-25T12:14:38.466Z,4.10
2018-02-25T12:15:38.465Z,3.60
2018-02-25T12:16:38.468Z,3.50
2018-02-25T12:17:38.485Z,2.90
2018-02-25T12:18:38.734Z,2.30
2018-02-25T12:19:38.477Z,2.50
2018-02-25T12:20:38.473Z,2.00
2018-02-25T12:21:38.485Z,2.80
2018-02-25T12:22:38.488Z,4.20
2018-02-25T12:23:38.485Z,3.00
2018-02-25T12:24:38.487Z,2.80
2018-02-25T12:25:38.488Z,2.60
2018-02-25T12:26:38.488Z,2.60
2018-02-25T12:27:38.492Z,3.40
2018-02-25T12:28:38.496Z,2.50
2018-02-25T12:29:38.504Z,2.30
2018-02-25T12:30:38.504Z,2.50
2018-02-25T12:31:38.504Z,2.50
2018-02-25T12:32:38.505Z,2.60
2018-02-25T12:33:38.506Z,2.60
2018-02-25T12:34:38.517Z,3.20
2018-02-25T12:35:38.522Z,3.50
2018-02-25T12:36:38.514Z,2.80
2018-02-25T12:37:38.516Z,2.40
2018-02-25T12:38:38.523Z,2.30
2018-02-25T12:39:38.521Z,2.30
2018-02-25T12:40:38.522Z,2.20
2018-02-25T12:41:38.527Z,2.50
2018-02-25T12:42:38.526Z,2.50
2018-02-25T12:43:38.528Z,3.40
2018-02-25T12:44:38.537Z,3.60
2018-02-25T12:45:38.529Z,3.00
2018-02-25T12:46:38.528Z,2.70
2018-02-25T12:47:38.568Z,2.30
2018-02-25T12:48:38.533Z,2.80
2018-02-25T12:49:38.533Z,3.00
2018-02-25T12:50:38.533Z,2.60
2018-02-25T12:51:38.532Z,2.60
2018-02-25T12:52:38.528Z,2.90
2018-02-25T12:53:38.532Z,3.00
2018-02-25T12:54:38.528Z,2.60
2018-02-25T12:55:38.782Z,2.50
2018-02-25T12:56:38.528Z,3.20
2018-02-25T12:57:38.528Z,2.90
2018-02-25T12:58:38.518Z,2.30
2018-02-25T12:59:38.516Z,2.20
2018-02-25T13:00:38.518Z,2.20
2018-02-25T13:01:38.512Z,2.20
2018-02-25T13:02:38.506Z,2.00
2018-02-25T13:03:38.506Z,2.10
2018-02-25T13:04:38.501Z,2.20
2018-02-25T13:05:38.497Z,2.30
2018-02-25T13:06:38.497Z,2.10
2018-02-25T13:07:38.493Z,2.10
2018-02-25T13:08:38.487Z,1.90
2018-02-25T13:09:38.481Z,2.30
2018-02-25T13:10:38.479Z,2.10
2018-02-25T13:11:38.471Z,2.00
2018-02-25T13:12:38.469Z,2.20
2018-02-25T13:13:38.456Z,2.30
2018-02-25T13:14:38.451Z,8.90
2018-02-25T13:15:38.448Z,4.60
2018-02-25T13:16:38.446Z,3.10
2018-02-25T13:17:38.438Z,2.80